sensor_id;sensor_type;location;lat;lon;timestamp;P1;durP1;ratioP1;P2;durP2;ratioP2
6249;SDS011;3158;52.148;11.568;2023-07-02T00:02:27;1.38;;;1.38;;
6249;SDS011;3158;52.148;11.568;2023-07-02T00:07:28;3.40;;;1.35;;
6249;SDS011;3158;52.148;11.568;2023-07-02T00:12:29;1.20;;;1.20;;
6249;SDS011;3158;52.148;11.568;2023-07-02T00:17:30;0.98;;;0.93;;
6249;SDS011;3158;52.148;11.568;2023-07-02T00:22:31;1.23;;;1.23;;
6249;SDS011;3158;52.148;11.568;2023-07-02T00:27:36;1.10;;;1.10;;
6249;SDS011;3158;52.148;11.568;2023-07-02T00:32:38;1.20;;;1.20;;
6249;SDS011;3158;52.148;11.568;2023-07-02T00:37:39;1.00;;;1.00;;
6249;SDS011;3158;52.148;11.568;2023-07-02T00:42:40;0.63;;;0.63;;
6249;SDS011;3158;52.148;11.568;2023-07-02T00:47:41;1.05;;;1.05;;
6249;SDS011;3158;52.148;11.568;2023-07-02T00:52:42;1.52;;;0.90;;
6249;SDS011;3158;52.148;11.568;2023-07-02T00:57:43;1.15;;;1.05;;
6249;SDS011;3158;52.148;11.568;2023-07-02T01:02:52;1.48;;;0.95;;
6249;SDS011;3158;52.148;11.568;2023-07-02T01:07:57;1.30;;;1.20;;
6249;SDS011;3158;52.148;11.568;2023-07-02T01:13:00;1.60;;;1.60;;
6249;SDS011;3158;52.148;11.568;2023-07-02T01:18:02;1.75;;;1.23;;
6249;SDS011;3158;52.148;11.568;2023-07-02T01:23:04;3.75;;;1.58;;
6249;SDS011;3158;52.148;11.568;2023-07-02T01:28:05;1.27;;;1.27;;
6249;SDS011;3158;52.148;11.568;2023-07-02T01:33:06;1.52;;;1.52;;
6249;SDS011;3158;52.148;11.568;2023-07-02T01:38:07;1.63;;;1.52;;
6249;SDS011;3158;52.148;11.568;2023-07-02T01:43:08;1.88;;;1.77;;
6249;SDS011;3158;52.148;11.568;2023-07-02T01:48:09;1.10;;;1.10;;
6249;SDS011;3158;52.148;11.568;2023-07-02T01:53:10;1.02;;;1.02;;
6249;SDS011;3158;52.148;11.568;2023-07-02T01:58:11;1.30;;;1.30;;
6249;SDS011;3158;52.148;11.568;2023-07-02T02:03:12;1.05;;;1.05;;
6249;SDS011;3158;52.148;11.568;2023-07-02T02:08:13;1.20;;;1.20;;
6249;SDS011;3158;52.148;11.568;2023-07-02T02:13:14;3.25;;;1.17;;
6249;SDS011;3158;52.148;11.568;2023-07-02T02:18:16;1.20;;;1.20;;
6249;SDS011;3158;52.148;11.568;2023-07-02T02:23:16;1.00;;;1.00;;
6249;SDS011;3158;52.148;11.568;2023-07-02T02:28:17;1.20;;;1.20;;
6249;SDS011;3158;52.148;11.568;2023-07-02T02:33:18;1.75;;;1.00;;
6249;SDS011;3158;52.148;11.568;2023-07-02T02:38:19;1.15;;;1.15;;
6249;SDS011;3158;52.148;11.568;2023-07-02T02:43:21;1.25;;;1.25;;
6249;SDS011;3158;52.148;11.568;2023-07-02T02:48:24;1.00;;;1.00;;
6249;SDS011;3158;52.148;11.568;2023-07-02T02:53:25;2.13;;;1.08;;
6249;SDS011;3158;52.148;11.568;2023-07-02T02:58:26;0.85;;;0.85;;
6249;SDS011;3158;52.148;11.568;2023-07-02T03:03:28;0.82;;;0.82;;
6249;SDS011;3158;52.148;11.568;2023-07-02T03:08:29;0.90;;;0.60;;
6249;SDS011;3158;52.148;11.568;2023-07-02T03:13:30;0.85;;;0.85;;
6249;SDS011;3158;52.148;11.568;2023-07-02T03:18:31;0.60;;;0.60;;
6249;SDS011;3158;52.148;11.568;2023-07-02T03:23:32;0.70;;;0.70;;
6249;SDS011;3158;52.148;11.568;2023-07-02T03:28:33;0.70;;;0.70;;
6249;SDS011;3158;52.148;11.568;2023-07-02T03:33:35;1.23;;;0.60;;
6249;SDS011;3158;52.148;11.568;2023-07-02T03:38:35;0.68;;;0.68;;
6249;SDS011;3158;52.148;11.568;2023-07-02T03:43:36;0.50;;;0.50;;
6249;SDS011;3158;52.148;11.568;2023-07-02T03:48:37;1.08;;;0.60;;
6249;SDS011;3158;52.148;11.568;2023-07-02T03:53:38;0.63;;;0.63;;
6249;SDS011;3158;52.148;11.568;2023-07-02T03:58:40;0.60;;;0.60;;
6249;SDS011;3158;52.148;11.568;2023-07-02T04:03:48;4.38;;;0.80;;
6249;SDS011;3158;52.148;11.568;2023-07-02T04:08:49;1.45;;;0.70;;
6249;SDS011;3158;52.148;11.568;2023-07-02T04:13:50;1.55;;;0.93;;
6249;SDS011;3158;52.148;11.568;2023-07-02T04:18:52;0.60;;;0.60;;
6249;SDS011;3158;52.148;11.568;2023-07-02T04:23:53;1.35;;;0.80;;
6249;SDS011;3158;52.148;11.568;2023-07-02T04:28:54;0.95;;;0.95;;
6249;SDS011;3158;52.148;11.568;2023-07-02T04:33:55;1.00;;;1.00;;
6249;SDS011;3158;52.148;11.568;2023-07-02T04:38:56;1.00;;;1.00;;
6249;SDS011;3158;52.148;11.568;2023-07-02T04:43:57;1.85;;;0.80;;
6249;SDS011;3158;52.148;11.568;2023-07-02T04:48:58;0.80;;;0.80;;
6249;SDS011;3158;52.148;11.568;2023-07-02T04:53:59;0.90;;;0.90;;
6249;SDS011;3158;52.148;11.568;2023-07-02T04:59:00;0.50;;;0.50;;
6249;SDS011;3158;52.148;11.568;2023-07-02T05:04:01;0.80;;;0.80;;
6249;SDS011;3158;52.148;11.568;2023-07-02T05:09:02;2.25;;;0.93;;
6249;SDS011;3158;52.148;11.568;2023-07-02T05:14:03;0.90;;;0.90;;
6249;SDS011;3158;52.148;11.568;2023-07-02T05:19:04;1.00;;;0.98;;
6249;SDS011;3158;52.148;11.568;2023-07-02T05:24:05;0.80;;;0.80;;
6249;SDS011;3158;52.148;11.568;2023-07-02T05:29:07;0.93;;;0.93;;
6249;SDS011;3158;52.148;11.568;2023-07-02T05:34:08;0.98;;;0.98;;
6249;SDS011;3158;52.148;11.568;2023-07-02T05:39:09;0.75;;;0.75;;
6249;SDS011;3158;52.148;11.568;2023-07-02T05:44:10;0.70;;;0.70;;
6249;SDS011;3158;52.148;11.568;2023-07-02T05:49:11;0.80;;;0.80;;
6249;SDS011;3158;52.148;11.568;2023-07-02T05:54:12;1.20;;;0.95;;
6249;SDS011;3158;52.148;11.568;2023-07-02T05:59:13;1.20;;;1.20;;
6249;SDS011;3158;52.148;11.568;2023-07-02T06:04:17;1.02;;;1.02;;
6249;SDS011;3158;52.148;11.568;2023-07-02T06:09:18;1.40;;;1.30;;
6249;SDS011;3158;52.148;11.568;2023-07-02T06:14:19;1.35;;;1.35;;
6249;SDS011;3158;52.148;11.568;2023-07-02T06:19:21;1.50;;;1.50;;
6249;SDS011;3158;52.148;11.568;2023-07-02T06:24:22;1.80;;;1.70;;
6249;SDS011;3158;52.148;11.568;2023-07-02T06:29:23;1.55;;;1.55;;
6249;SDS011;3158;52.148;11.568;2023-07-02T06:34:24;1.95;;;1.50;;
6249;SDS011;3158;52.148;11.568;2023-07-02T06:39:25;1.40;;;1.40;;
6249;SDS011;3158;52.148;11.568;2023-07-02T06:44:26;1.60;;;1.60;;
6249;SDS011;3158;52.148;11.568;2023-07-02T06:49:27;2.65;;;2.55;;
6249;SDS011;3158;52.148;11.568;2023-07-02T06:54:28;1.83;;;1.83;;
6249;SDS011;3158;52.148;11.568;2023-07-02T06:59:29;2.15;;;2.10;;
6249;SDS011;3158;52.148;11.568;2023-07-02T07:04:30;3.67;;;2.33;;
6249;SDS011;3158;52.148;11.568;2023-07-02T07:09:31;3.20;;;3.00;;
6249;SDS011;3158;52.148;11.568;2023-07-02T07:14:32;2.88;;;2.78;;
6249;SDS011;3158;52.148;11.568;2023-07-02T07:19:33;3.15;;;2.95;;
6249;SDS011;3158;52.148;11.568;2023-07-02T07:24:34;3.60;;;3.40;;
6249;SDS011;3158;52.148;11.568;2023-07-02T07:29:35;4.72;;;4.28;;
6249;SDS011;3158;52.148;11.568;2023-07-02T07:34:36;6.68;;;4.05;;
6249;SDS011;3158;52.148;11.568;2023-07-02T07:39:37;4.15;;;3.85;;
6249;SDS011;3158;52.148;11.568;2023-07-02T07:44:38;4.47;;;4.18;;
6249;SDS011;3158;52.148;11.568;2023-07-02T07:49:39;4.30;;;3.92;;
6249;SDS011;3158;52.148;11.568;2023-07-02T07:54:40;4.10;;;3.80;;
6249;SDS011;3158;52.148;11.568;2023-07-02T07:59:41;3.63;;;3.42;;
6249;SDS011;3158;52.148;11.568;2023-07-02T08:04:43;3.40;;;3.25;;
6249;SDS011;3158;52.148;11.568;2023-07-02T08:09:44;3.60;;;3.40;;
6249;SDS011;3158;52.148;11.568;2023-07-02T08:14:45;4.80;;;2.63;;
6249;SDS011;3158;52.148;11.568;2023-07-02T08:19:46;3.35;;;2.05;;
6249;SDS011;3158;52.148;11.568;2023-07-02T08:24:47;2.17;;;2.08;;
6249;SDS011;3158;52.148;11.568;2023-07-02T08:29:49;2.67;;;2.58;;
6249;SDS011;3158;52.148;11.568;2023-07-02T08:34:50;2.17;;;2.08;;
6249;SDS011;3158;52.148;11.568;2023-07-02T08:39:51;3.60;;;2.17;;
6249;SDS011;3158;52.148;11.568;2023-07-02T08:44:53;2.45;;;2.13;;
6249;SDS011;3158;52.148;11.568;2023-07-02T08:49:55;2.08;;;1.90;;
6249;SDS011;3158;52.148;11.568;2023-07-02T08:54:56;5.20;;;2.58;;
6249;SDS011;3158;52.148;11.568;2023-07-02T08:59:57;4.45;;;2.35;;
6249;SDS011;3158;52.148;11.568;2023-07-02T09:04:58;5.75;;;2.58;;
6249;SDS011;3158;52.148;11.568;2023-07-02T09:09:59;4.78;;;2.47;;
6249;SDS011;3158;52.148;11.568;2023-07-02T09:15:01;4.30;;;2.53;;
6249;SDS011;3158;52.148;11.568;2023-07-02T09:20:06;6.03;;;2.22;;
6249;SDS011;3158;52.148;11.568;2023-07-02T09:25:08;6.20;;;2.50;;
6249;SDS011;3158;52.148;11.568;2023-07-02T09:30:12;2.33;;;2.22;;
6249;SDS011;3158;52.148;11.568;2023-07-02T09:35:14;3.72;;;3.03;;
6249;SDS011;3158;52.148;11.568;2023-07-02T09:40:15;3.40;;;2.13;;
6249;SDS011;3158;52.148;11.568;2023-07-02T09:45:18;3.13;;;2.55;;
6249;SDS011;3158;52.148;11.568;2023-07-02T09:50:19;7.55;;;2.33;;
6249;SDS011;3158;52.148;11.568;2023-07-02T09:55:21;6.47;;;2.33;;
6249;SDS011;3158;52.148;11.568;2023-07-02T10:00:22;5.25;;;2.55;;
6249;SDS011;3158;52.148;11.568;2023-07-02T10:05:29;5.22;;;2.53;;
6249;SDS011;3158;52.148;11.568;2023-07-02T10:10:31;8.32;;;2.35;;
6249;SDS011;3158;52.148;11.568;2023-07-02T10:15:32;5.25;;;2.15;;
6249;SDS011;3158;52.148;11.568;2023-07-02T10:20:38;5.85;;;2.42;;
6249;SDS011;3158;52.148;11.568;2023-07-02T10:25:39;7.75;;;2.75;;
6249;SDS011;3158;52.148;11.568;2023-07-02T10:30:41;6.13;;;2.72;;
6249;SDS011;3158;52.148;11.568;2023-07-02T10:35:43;6.60;;;2.95;;
6249;SDS011;3158;52.148;11.568;2023-07-02T10:40:45;3.92;;;2.67;;
6249;SDS011;3158;52.148;11.568;2023-07-02T10:45:46;7.85;;;2.33;;
6249;SDS011;3158;52.148;11.568;2023-07-02T10:50:47;4.82;;;2.75;;
6249;SDS011;3158;52.148;11.568;2023-07-02T10:55:54;3.78;;;2.75;;
6249;SDS011;3158;52.148;11.568;2023-07-02T11:00:55;7.03;;;2.50;;
6249;SDS011;3158;52.148;11.568;2023-07-02T11:05:56;5.82;;;2.55;;
6249;SDS011;3158;52.148;11.568;2023-07-02T11:11:07;3.28;;;1.90;;
6249;SDS011;3158;52.148;11.568;2023-07-02T11:16:16;4.00;;;2.35;;
6249;SDS011;3158;52.148;11.568;2023-07-02T11:21:18;5.75;;;2.50;;
6249;SDS011;3158;52.148;11.568;2023-07-02T11:26:19;2.47;;;2.28;;
6249;SDS011;3158;52.148;11.568;2023-07-02T11:31:26;5.53;;;2.47;;
6249;SDS011;3158;52.148;11.568;2023-07-02T11:36:27;4.95;;;2.72;;
6249;SDS011;3158;52.148;11.568;2023-07-02T11:41:37;3.10;;;2.40;;
6249;SDS011;3158;52.148;11.568;2023-07-02T11:46:38;2.45;;;1.98;;
6249;SDS011;3158;52.148;11.568;2023-07-02T11:51:40;3.45;;;3.15;;
6249;SDS011;3158;52.148;11.568;2023-07-02T11:56:41;6.63;;;2.80;;
6249;SDS011;3158;52.148;11.568;2023-07-02T12:01:42;5.22;;;2.85;;
6249;SDS011;3158;52.148;11.568;2023-07-02T12:06:43;8.38;;;2.83;;
6249;SDS011;3158;52.148;11.568;2023-07-02T12:11:44;3.45;;;2.45;;
6249;SDS011;3158;52.148;11.568;2023-07-02T12:16:46;3.40;;;2.30;;
6249;SDS011;3158;52.148;11.568;2023-07-02T12:21:46;8.52;;;2.20;;
6249;SDS011;3158;52.148;11.568;2023-07-02T12:26:47;7.85;;;2.40;;
6249;SDS011;3158;52.148;11.568;2023-07-02T12:31:48;5.90;;;2.75;;
6249;SDS011;3158;52.148;11.568;2023-07-02T12:36:49;2.58;;;2.38;;
6249;SDS011;3158;52.148;11.568;2023-07-02T12:41:50;3.15;;;2.22;;
6249;SDS011;3158;52.148;11.568;2023-07-02T12:46:51;5.45;;;2.63;;
6249;SDS011;3158;52.148;11.568;2023-07-02T12:51:52;3.78;;;2.28;;
6249;SDS011;3158;52.148;11.568;2023-07-02T12:56:53;2.88;;;2.03;;
6249;SDS011;3158;52.148;11.568;2023-07-02T13:01:55;3.50;;;2.00;;
6249;SDS011;3158;52.148;11.568;2023-07-02T13:06:56;5.15;;;1.95;;
6249;SDS011;3158;52.148;11.568;2023-07-02T13:11:57;3.95;;;1.55;;
6249;SDS011;3158;52.148;11.568;2023-07-02T13:16:58;4.55;;;1.95;;
6249;SDS011;3158;52.148;11.568;2023-07-02T13:22:05;3.40;;;1.92;;
6249;SDS011;3158;52.148;11.568;2023-07-02T13:27:11;5.28;;;1.77;;
6249;SDS011;3158;52.148;11.568;2023-07-02T13:32:12;6.00;;;2.38;;
6249;SDS011;3158;52.148;11.568;2023-07-02T13:37:13;1.70;;;1.60;;
6249;SDS011;3158;52.148;11.568;2023-07-02T13:42:18;2.20;;;1.63;;
6249;SDS011;3158;52.148;11.568;2023-07-02T13:47:19;2.08;;;1.75;;
6249;SDS011;3158;52.148;11.568;2023-07-02T13:52:20;2.05;;;1.95;;
6249;SDS011;3158;52.148;11.568;2023-07-02T13:57:22;2.70;;;1.60;;
6249;SDS011;3158;52.148;11.568;2023-07-02T14:02:23;5.35;;;1.80;;
6249;SDS011;3158;52.148;11.568;2023-07-02T14:07:24;1.73;;;1.63;;
6249;SDS011;3158;52.148;11.568;2023-07-02T14:12:25;4.68;;;1.55;;
6249;SDS011;3158;52.148;11.568;2023-07-02T14:17:27;3.90;;;1.88;;
6249;SDS011;3158;52.148;11.568;2023-07-02T14:22:28;3.30;;;2.28;;
6249;SDS011;3158;52.148;11.568;2023-07-02T14:27:29;3.95;;;1.80;;
6249;SDS011;3158;52.148;11.568;2023-07-02T14:32:30;2.10;;;1.70;;
6249;SDS011;3158;52.148;11.568;2023-07-02T14:37:31;3.22;;;1.73;;
6249;SDS011;3158;52.148;11.568;2023-07-02T14:42:33;4.47;;;1.50;;
6249;SDS011;3158;52.148;11.568;2023-07-02T14:47:34;2.35;;;1.75;;
6249;SDS011;3158;52.148;11.568;2023-07-02T14:52:35;1.85;;;1.60;;
6249;SDS011;3158;52.148;11.568;2023-07-02T14:57:36;2.60;;;2.03;;
6249;SDS011;3158;52.148;11.568;2023-07-02T15:02:37;2.05;;;1.90;;
6249;SDS011;3158;52.148;11.568;2023-07-02T15:07:38;2.25;;;2.05;;
6249;SDS011;3158;52.148;11.568;2023-07-02T15:12:39;3.65;;;2.03;;
6249;SDS011;3158;52.148;11.568;2023-07-02T15:17:40;1.55;;;1.45;;
6249;SDS011;3158;52.148;11.568;2023-07-02T15:22:41;2.50;;;1.90;;
6249;SDS011;3158;52.148;11.568;2023-07-02T15:27:42;5.07;;;2.45;;
6249;SDS011;3158;52.148;11.568;2023-07-02T15:32:43;4.20;;;2.40;;
6249;SDS011;3158;52.148;11.568;2023-07-02T15:37:44;5.15;;;2.05;;
6249;SDS011;3158;52.148;11.568;2023-07-02T15:42:45;3.70;;;2.03;;
6249;SDS011;3158;52.148;11.568;2023-07-02T15:47:46;4.25;;;2.22;;
6249;SDS011;3158;52.148;11.568;2023-07-02T15:52:47;3.95;;;1.92;;
6249;SDS011;3158;52.148;11.568;2023-07-02T15:57:49;2.00;;;1.90;;
6249;SDS011;3158;52.148;11.568;2023-07-02T16:02:50;3.22;;;2.08;;
6249;SDS011;3158;52.148;11.568;2023-07-02T16:07:51;4.60;;;2.50;;
6249;SDS011;3158;52.148;11.568;2023-07-02T16:12:52;2.13;;;1.77;;
6249;SDS011;3158;52.148;11.568;2023-07-02T16:17:53;6.10;;;2.25;;
6249;SDS011;3158;52.148;11.568;2023-07-02T16:22:54;3.20;;;2.00;;
6249;SDS011;3158;52.148;11.568;2023-07-02T16:27:55;2.85;;;1.70;;
6249;SDS011;3158;52.148;11.568;2023-07-02T16:32:56;3.00;;;1.98;;
6249;SDS011;3158;52.148;11.568;2023-07-02T16:37:57;2.85;;;1.92;;
6249;SDS011;3158;52.148;11.568;2023-07-02T16:42:58;4.47;;;2.13;;
6249;SDS011;3158;52.148;11.568;2023-07-02T16:47:59;3.15;;;1.63;;
6249;SDS011;3158;52.148;11.568;2023-07-02T16:53:01;3.03;;;2.38;;
6249;SDS011;3158;52.148;11.568;2023-07-02T16:58:02;2.10;;;1.90;;
6249;SDS011;3158;52.148;11.568;2023-07-02T17:03:03;2.17;;;1.60;;
6249;SDS011;3158;52.148;11.568;2023-07-02T17:08:04;2.70;;;1.83;;
6249;SDS011;3158;52.148;11.568;2023-07-02T17:13:05;2.83;;;1.48;;
6249;SDS011;3158;52.148;11.568;2023-07-02T17:18:06;2.15;;;1.70;;
6249;SDS011;3158;52.148;11.568;2023-07-02T17:23:07;2.67;;;1.90;;
6249;SDS011;3158;52.148;11.568;2023-07-02T17:28:08;1.63;;;1.52;;
6249;SDS011;3158;52.148;11.568;2023-07-02T17:33:09;3.38;;;1.90;;
6249;SDS011;3158;52.148;11.568;2023-07-02T17:38:10;1.80;;;1.70;;
6249;SDS011;3158;52.148;11.568;2023-07-02T17:43:11;3.15;;;1.92;;
6249;SDS011;3158;52.148;11.568;2023-07-02T17:48:12;2.10;;;1.50;;
6249;SDS011;3158;52.148;11.568;2023-07-02T17:53:14;2.42;;;1.70;;
6249;SDS011;3158;52.148;11.568;2023-07-02T17:58:15;4.63;;;1.35;;
6249;SDS011;3158;52.148;11.568;2023-07-02T18:03:16;1.60;;;1.50;;
6249;SDS011;3158;52.148;11.568;2023-07-02T18:08:17;4.15;;;1.52;;
6249;SDS011;3158;52.148;11.568;2023-07-02T18:13:18;3.75;;;2.08;;
6249;SDS011;3158;52.148;11.568;2023-07-02T18:18:21;3.28;;;2.30;;
6249;SDS011;3158;52.148;11.568;2023-07-02T18:23:22;5.15;;;1.80;;
6249;SDS011;3158;52.148;11.568;2023-07-02T18:28:24;3.88;;;2.42;;
6249;SDS011;3158;52.148;11.568;2023-07-02T18:33:25;2.08;;;1.50;;
6249;SDS011;3158;52.148;11.568;2023-07-02T18:38:26;2.90;;;1.85;;
6249;SDS011;3158;52.148;11.568;2023-07-02T18:43:27;4.53;;;1.67;;
6249;SDS011;3158;52.148;11.568;2023-07-02T18:48:29;1.25;;;1.20;;
6249;SDS011;3158;52.148;11.568;2023-07-02T18:53:31;2.35;;;1.40;;
6249;SDS011;3158;52.148;11.568;2023-07-02T18:58:33;5.50;;;1.40;;
6249;SDS011;3158;52.148;11.568;2023-07-02T19:03:36;1.05;;;1.05;;
6249;SDS011;3158;52.148;11.568;2023-07-02T19:08:37;3.80;;;1.42;;
6249;SDS011;3158;52.148;11.568;2023-07-02T19:13:38;2.10;;;1.52;;
6249;SDS011;3158;52.148;11.568;2023-07-02T19:18:40;1.85;;;1.75;;
6249;SDS011;3158;52.148;11.568;2023-07-02T19:23:42;1.58;;;1.25;;
6249;SDS011;3158;52.148;11.568;2023-07-02T19:28:43;2.00;;;1.13;;
6249;SDS011;3158;52.148;11.568;2023-07-02T19:33:44;4.70;;;1.50;;
6249;SDS011;3158;52.148;11.568;2023-07-02T19:38:45;2.10;;;1.40;;
6249;SDS011;3158;52.148;11.568;2023-07-02T19:43:46;1.85;;;1.38;;
6249;SDS011;3158;52.148;11.568;2023-07-02T19:48:48;2.08;;;1.50;;
6249;SDS011;3158;52.148;11.568;2023-07-02T19:53:50;2.15;;;1.40;;
6249;SDS011;3158;52.148;11.568;2023-07-02T19:58:51;2.75;;;1.13;;
6249;SDS011;3158;52.148;11.568;2023-07-02T20:03:52;3.72;;;2.42;;
6249;SDS011;3158;52.148;11.568;2023-07-02T20:08:53;2.60;;;2.45;;
6249;SDS011;3158;52.148;11.568;2023-07-02T20:13:54;3.17;;;1.92;;
6249;SDS011;3158;52.148;11.568;2023-07-02T20:18:55;1.77;;;1.60;;
6249;SDS011;3158;52.148;11.568;2023-07-02T20:23:56;1.90;;;1.63;;
6249;SDS011;3158;52.148;11.568;2023-07-02T20:28:57;1.90;;;1.48;;
6249;SDS011;3158;52.148;11.568;2023-07-02T20:33:58;1.67;;;1.30;;
6249;SDS011;3158;52.148;11.568;2023-07-02T20:38:59;1.70;;;1.60;;
6249;SDS011;3158;52.148;11.568;2023-07-02T20:44:00;3.20;;;1.42;;
6249;SDS011;3158;52.148;11.568;2023-07-02T20:49:03;2.03;;;1.65;;
6249;SDS011;3158;52.148;11.568;2023-07-02T20:54:05;3.90;;;1.95;;
6249;SDS011;3158;52.148;11.568;2023-07-02T20:59:06;1.50;;;1.40;;
6249;SDS011;3158;52.148;11.568;2023-07-02T21:04:08;5.85;;;2.20;;
6249;SDS011;3158;52.148;11.568;2023-07-02T21:09:09;3.22;;;1.80;;
6249;SDS011;3158;52.148;11.568;2023-07-02T21:14:11;3.15;;;1.60;;
6249;SDS011;3158;52.148;11.568;2023-07-02T21:19:12;1.63;;;1.48;;
6249;SDS011;3158;52.148;11.568;2023-07-02T21:24:13;2.65;;;1.58;;
6249;SDS011;3158;52.148;11.568;2023-07-02T21:29:14;3.15;;;1.70;;
6249;SDS011;3158;52.148;11.568;2023-07-02T21:34:16;1.77;;;1.35;;
6249;SDS011;3158;52.148;11.568;2023-07-02T21:39:17;1.92;;;1.30;;
6249;SDS011;3158;52.148;11.568;2023-07-02T21:44:18;2.83;;;1.83;;
6249;SDS011;3158;52.148;11.568;2023-07-02T21:49:19;1.25;;;1.15;;
6249;SDS011;3158;52.148;11.568;2023-07-02T21:54:20;1.35;;;1.27;;
6249;SDS011;3158;52.148;11.568;2023-07-02T21:59:21;1.67;;;1.50;;
6249;SDS011;3158;52.148;11.568;2023-07-02T22:04:22;2.58;;;1.50;;
6249;SDS011;3158;52.148;11.568;2023-07-02T22:09:23;2.20;;;1.35;;
6249;SDS011;3158;52.148;11.568;2023-07-02T22:14:24;1.58;;;1.48;;
6249;SDS011;3158;52.148;11.568;2023-07-02T22:19:25;6.00;;;2.03;;
6249;SDS011;3158;52.148;11.568;2023-07-02T22:24:30;1.83;;;1.73;;
6249;SDS011;3158;52.148;11.568;2023-07-02T22:29:31;1.83;;;1.55;;
6249;SDS011;3158;52.148;11.568;2023-07-02T22:34:32;1.77;;;1.60;;
6249;SDS011;3158;52.148;11.568;2023-07-02T22:39:33;1.88;;;1.73;;
6249;SDS011;3158;52.148;11.568;2023-07-02T22:44:34;2.65;;;1.90;;
6249;SDS011;3158;52.148;11.568;2023-07-02T22:49:35;3.53;;;1.65;;
6249;SDS011;3158;52.148;11.568;2023-07-02T22:54:36;1.42;;;1.13;;
6249;SDS011;3158;52.148;11.568;2023-07-02T22:59:37;4.55;;;1.95;;
6249;SDS011;3158;52.148;11.568;2023-07-02T23:04:38;2.42;;;1.63;;
6249;SDS011;3158;52.148;11.568;2023-07-02T23:09:39;2.17;;;1.90;;
6249;SDS011;3158;52.148;11.568;2023-07-02T23:14:40;1.88;;;1.77;;
6249;SDS011;3158;52.148;11.568;2023-07-02T23:19:41;3.28;;;1.60;;
6249;SDS011;3158;52.148;11.568;2023-07-02T23:24:42;1.83;;;1.73;;
6249;SDS011;3158;52.148;11.568;2023-07-02T23:29:45;6.07;;;2.20;;
6249;SDS011;3158;52.148;11.568;2023-07-02T23:34:46;1.25;;;1.15;;
6249;SDS011;3158;52.148;11.568;2023-07-02T23:39:47;1.70;;;1.60;;
6249;SDS011;3158;52.148;11.568;2023-07-02T23:44:51;1.88;;;1.45;;
6249;SDS011;3158;52.148;11.568;2023-07-02T23:49:52;1.88;;;1.67;;
6249;SDS011;3158;52.148;11.568;2023-07-02T23:54:53;9.52;;;1.73;;
6249;SDS011;3158;52.148;11.568;2023-07-02T23:59:54;2.97;;;1.45;;
